createdAt,value
2024-02-15T00:07:37.993Z,3
2024-02-15T00:17:40.034Z,2.2
2024-02-15T00:27:39.406Z,2
2024-02-15T00:37:42.124Z,2.1
2024-02-15T00:47:40.792Z,2.5
2024-02-15T00:57:42.957Z,2.8
2024-02-15T01:07:41.932Z,3.7
2024-02-15T01:17:43.005Z,3.5
2024-02-15T01:27:43.735Z,3.5
2024-02-15T01:37:44.722Z,3
2024-02-15T01:47:44.619Z,3.8
2024-02-15T01:57:45.775Z,2.9
2024-02-15T02:07:45.715Z,3.3
2024-02-15T02:17:47.460Z,3.3
2024-02-15T02:27:46.773Z,3.6
2024-02-15T02:37:47.362Z,3.2
2024-02-15T02:47:50.133Z,4.1
2024-02-15T02:57:49.903Z,3.7
2024-02-15T03:07:49.006Z,3.4
2024-02-15T03:17:51.772Z,3.6
2024-02-15T03:27:49.942Z,3.5
2024-02-15T03:37:51.905Z,3.5
2024-02-15T03:47:51.218Z,3.8
2024-02-15T03:57:52.128Z,3.8
2024-02-15T04:07:51.799Z,3.2
2024-02-15T04:17:53.079Z,3.6
2024-02-15T04:27:52.752Z,3.7
2024-02-15T04:37:53.364Z,3.6
2024-02-15T04:47:54.150Z,3.3
2024-02-15T04:57:54.425Z,3.9
2024-02-15T05:07:54.601Z,3.1
2024-02-15T05:17:56.388Z,3.3
2024-02-15T05:27:56.631Z,4.2
2024-02-15T05:37:55.952Z,3.3
2024-02-15T05:47:58.582Z,2.8
2024-02-15T05:57:56.804Z,3.5
2024-02-15T06:05:29.101Z,3.5
2024-02-15T06:07:57.106Z,3.3
2024-02-15T06:17:58.173Z,4.8
2024-02-15T06:27:57.880Z,4.1
2024-02-15T06:37:59.458Z,3.4
2024-02-15T06:47:58.862Z,3.9
2024-02-15T06:57:59.518Z,3.8
2024-02-15T07:07:59.501Z,4.4
2024-02-15T07:18:01.076Z,3.9
2024-02-15T07:28:00.276Z,4.3
2024-02-15T07:38:01.265Z,4.1
2024-02-15T07:48:01.198Z,4.4
2024-02-15T07:58:01.620Z,4.8
2024-02-15T08:08:01.644Z,3.8
2024-02-15T08:18:03.739Z,3.7
2024-02-15T08:28:02.609Z,3.4
2024-02-15T08:38:04.520Z,3.9
2024-02-15T08:48:03.483Z,3.8
2024-02-15T08:58:04.440Z,3.9
2024-02-15T09:08:03.967Z,3.6
2024-02-15T09:18:06.194Z,3.5
2024-02-15T09:28:04.490Z,3.3
2024-02-15T09:38:04.712Z,3.2
2024-02-15T09:48:05.029Z,3.2
2024-02-15T09:58:06.017Z,3.5
2024-02-15T10:08:05.826Z,3
2024-02-15T10:18:06.236Z,3.1
2024-02-15T10:28:06.027Z,3.5
2024-02-15T10:38:07.077Z,3.6
2024-02-15T10:48:06.702Z,3.5
2024-02-15T10:58:07.724Z,3.1
2024-02-15T11:08:07.202Z,3.4
2024-02-15T11:18:08.340Z,3
2024-02-15T11:28:07.660Z,3
2024-02-15T11:38:08.608Z,3.2
2024-02-15T11:48:08.199Z,3.7
2024-02-15T11:58:10.620Z,3.9
2024-02-15T12:08:08.837Z,4.1
2024-02-15T12:18:09.840Z,4.3
2024-02-15T12:28:09.203Z,4.2
2024-02-15T12:38:09.441Z,3.6
2024-02-15T12:48:09.733Z,3.6
2024-02-15T12:58:10.214Z,3.7
2024-02-15T13:08:10.324Z,3.6
2024-02-15T13:18:11.106Z,4.1
2024-02-15T13:28:12.219Z,2.9
2024-02-15T13:38:11.440Z,2.2
2024-02-15T13:48:12.826Z,2.4
2024-02-15T13:58:12.194Z,1.7
2024-02-15T14:08:13.169Z,1.6
2024-02-15T14:18:13.465Z,1.6
2024-02-15T14:28:16.210Z,1.5
2024-02-15T14:38:15.004Z,1.3
2024-02-15T14:48:15.732Z,1.8
2024-02-15T14:58:16.478Z,1.5
2024-02-15T15:08:17.361Z,1.6
2024-02-15T15:18:18.517Z,1.3
2024-02-15T15:28:19.204Z,1.6
2024-02-15T15:38:20.285Z,1.4
2024-02-15T15:48:21.211Z,1.8
2024-02-15T15:58:22.185Z,1.5
2024-02-15T16:08:23.175Z,2
2024-02-15T16:18:25.786Z,1.5
2024-02-15T16:28:25.279Z,1.5
2024-02-15T16:38:26.415Z,1.6
2024-02-15T16:48:27.570Z,1.5
2024-02-15T16:58:28.737Z,1.5
2024-02-15T17:08:29.865Z,1.7
2024-02-15T17:18:31.622Z,1.3
2024-02-15T17:28:32.262Z,1.4
2024-02-15T17:38:33.576Z,1.7
2024-02-15T17:48:35.035Z,1.3
2024-02-15T17:58:36.248Z,0.9
2024-02-15T18:08:37.578Z,1.4
2024-02-15T18:18:39.535Z,1.4
2024-02-15T18:28:40.159Z,1.5
2024-02-15T18:38:41.515Z,1.1
2024-02-15T18:48:42.896Z,1
2024-02-15T18:58:44.064Z,1.4
2024-02-15T19:08:45.370Z,0.9
2024-02-15T19:18:46.902Z,1
2024-02-15T19:28:48.068Z,1.1
2024-02-15T19:38:49.406Z,1.1
2024-02-15T19:48:50.970Z,0.8
2024-02-15T19:58:52.138Z,1.5
2024-02-15T20:08:53.544Z,1.2
2024-02-15T20:18:55.072Z,1.2
2024-02-15T20:28:56.379Z,1.3
2024-02-15T20:38:57.836Z,1.1
2024-02-15T20:48:59.422Z,1.3
2024-02-15T20:59:00.632Z,1.7
2024-02-15T21:09:02.015Z,1.2
2024-02-15T21:19:03.509Z,1
2024-02-15T21:29:04.727Z,1.1
2024-02-15T21:39:06.091Z,1.2
2024-02-15T21:49:08.892Z,1.1
2024-02-15T21:59:08.683Z,1.3
2024-02-15T22:09:09.928Z,1.6
2024-02-15T22:19:13.437Z,1.4
2024-02-15T22:29:12.287Z,1.3
2024-02-15T22:39:13.538Z,1.6
2024-02-15T22:49:15.714Z,1.6
2024-02-15T22:59:15.808Z,1.8
2024-02-15T23:09:16.976Z,2
2024-02-15T23:19:18.075Z,1.8
2024-02-15T23:29:18.924Z,1.9
2024-02-15T23:39:20.020Z,2.4
2024-02-15T23:49:21.124Z,3.2
2024-02-15T23:59:21.950Z,3
